Saint Francis, ME (04774)

11:17 AM EDT on August 03, 2015 (GMT -0400)
Apex Wx | | Change Station
CLOSE
Current Station
Personal Weather Station
Location: Fort Kent, ME
Elevation: 541 ft
Nearby Weather Stations

Elev 541 ft 47.25 °N, 68.58 °W | Updated 24 seconds ago

Partly Cloudy
Partly Cloudy
79.0 °F
Feels Like 81 °F
N
11.0
Wind Variable Wind from SW
Gusts 16.0 mph

Today
High -- | Low -- °F
--% Chance of Precip.
Yesterday
High -- | Low -- °F
Precip. -- in
5:17 AM 8:06 PM
Waning Gibbous, 86% visible
Pressure 29.68 in
Visibility 10.0 miles
Clouds Clear
Heat Index 81 °F
Dew Point 63 °F
Humidity 58%
Rainfall 0.00 in
Snow Depth Not available.
UV 8 out of 12
Pollen 5.80 out of 12
Air Quality Not available.
Flu Activity Not available.
METAR KFVE 031453Z AUTO 17011G22KT 10SM CLR 24/16 A2970 RMK AO2 SLP051 T02440156 58017

More Conditions Fewer Conditions

Pressure 29.68 in
Visibility 10.0 miles
Clouds Clear
Heat Index 81 °F
Dew Point 63 °F
Humidity 58%
Rainfall 0.00 in
Snow Depth Not available.
UV 8 out of 12
Pollen 5.80 out of 12
Air Quality Not available.
Flu Activity Not available.
METAR KFVE 031453Z AUTO 17011G22KT 10SM CLR 24/16 A2970 RMK AO2 SLP051 T02440156 58017

More Conditions Fewer Conditions

10-Day Weather Forecast

×

Almanac

Astronomy

Aug. 03, 2015 Rise Set
Actual Time
Civil Twilight
Nautical Twilight
Astronomical Twilight
Moon
Length of Visible Light
Length of Day
Tomorrow will be .
, % of the Moon is Illuminated

Today's Extremes

State Highs State Lows

Community

WunderPhotos

Upload Photos

1,843,633 photos uploaded!

WunderBlogs® & News

Nearby

Air Quality

  Air Quality AQ Index Pollutant
Not available.

Snow Depth

Station Depth Elevation

Earthquake Activity

City Distance Mag. Time & Date
Minimum magnitude displayed is 2.5.

Coastal Water Temperatures

Place Temperature

Stations

Nearby Weather Stations

Station Location Temp. Windchill Dew Point Humidity Wind Precip. Elev Updated Type